createdAt,value
2018-08-06T00:01:20.152Z,22.56
2018-08-06T00:03:50.570Z,22.52
2018-08-06T00:06:21.023Z,22.54
2018-08-06T00:08:51.607Z,22.62
2018-08-06T00:11:22.170Z,22.58
2018-08-06T00:13:52.504Z,22.56
2018-08-06T00:16:22.911Z,22.57
2018-08-06T00:18:53.146Z,22.56
2018-08-06T00:21:23.571Z,22.52
2018-08-06T00:23:54.271Z,22.52
2018-08-06T00:26:24.766Z,22.51
2018-08-06T00:28:55.812Z,22.41
2018-08-06T00:31:26.319Z,22.40
2018-08-06T00:33:56.820Z,22.37
2018-08-06T00:36:27.048Z,22.32
2018-08-06T00:38:57.430Z,22.33
2018-08-06T00:41:28.015Z,22.32
2018-08-06T00:43:58.367Z,22.29
2018-08-06T00:46:28.962Z,22.18
2018-08-06T00:48:58.875Z,22.18
2018-08-06T00:51:29.209Z,22.24
2018-08-06T00:54:00.059Z,22.24
2018-08-06T00:56:30.981Z,22.16
2018-08-06T00:59:00.879Z,22.13
2018-08-06T01:01:31.435Z,22.13
2018-08-06T01:04:01.931Z,22.06
2018-08-06T01:06:32.295Z,22.07
2018-08-06T01:09:02.775Z,22.04
2018-08-06T01:11:33.149Z,22.08
2018-08-06T01:14:03.730Z,22.03
2018-08-06T01:16:34.398Z,21.99
2018-08-06T01:19:04.726Z,21.94
2018-08-06T01:21:35.116Z,21.92
2018-08-06T01:24:05.552Z,21.90
2018-08-06T01:26:36.155Z,21.90
2018-08-06T01:29:06.778Z,21.92
2018-08-06T01:31:37.192Z,21.93
2018-08-06T01:34:07.802Z,21.90
2018-08-06T01:36:39.173Z,21.86
2018-08-06T01:39:12.455Z,21.86
2018-08-06T01:41:43.074Z,21.81
2018-08-06T01:44:13.462Z,21.80
2018-08-06T01:46:44.516Z,21.80
2018-08-06T01:49:14.452Z,21.80
2018-08-06T01:51:44.791Z,21.80
2018-08-06T01:54:15.184Z,21.77
2018-08-06T01:56:45.692Z,21.81
2018-08-06T01:59:15.992Z,21.77
2018-08-06T02:01:46.689Z,21.79
2018-08-06T02:04:17.090Z,21.71
2018-08-06T02:06:47.535Z,21.69
2018-08-06T02:09:18.261Z,21.67
2018-08-06T02:11:48.602Z,21.69
2018-08-06T02:14:18.970Z,21.64
2018-08-06T02:16:49.528Z,21.61
2018-08-06T02:19:19.470Z,21.60
2018-08-06T02:21:49.795Z,21.62
2018-08-06T02:24:20.323Z,21.60
2018-08-06T02:26:50.583Z,21.61
2018-08-06T02:29:20.931Z,21.66
2018-08-06T02:31:51.462Z,21.66
2018-08-06T02:34:22.011Z,21.59
2018-08-06T02:36:52.455Z,21.60
2018-08-06T02:39:23.644Z,21.62
2018-08-06T02:41:53.897Z,21.58
2018-08-06T02:44:23.835Z,21.57
2018-08-06T02:46:53.972Z,21.57
2018-08-06T02:49:24.490Z,21.56
2018-08-06T02:51:55.061Z,21.55
2018-08-06T02:54:25.510Z,21.51
2018-08-06T02:56:56.153Z,21.48
2018-08-06T02:59:26.615Z,21.47
2018-08-06T03:01:56.878Z,21.47
2018-08-06T03:04:27.222Z,21.44
2018-08-06T03:06:57.802Z,21.44
2018-08-06T03:09:28.407Z,21.48
2018-08-06T03:11:59.196Z,21.45
2018-08-06T03:14:29.767Z,21.43
2018-08-06T03:17:00.285Z,21.51
2018-08-06T03:19:31.015Z,21.46
2018-08-06T03:22:01.460Z,21.49
2018-08-06T03:24:31.973Z,21.46
2018-08-06T03:27:05.928Z,21.45
2018-08-06T03:29:36.693Z,21.47
2018-08-06T03:32:07.090Z,21.52
2018-08-06T03:34:37.328Z,21.55
2018-08-06T03:37:07.725Z,21.49
2018-08-06T03:39:38.219Z,21.50
2018-08-06T03:42:08.863Z,21.45
2018-08-06T03:44:39.300Z,21.47
2018-08-06T03:47:09.307Z,21.49
2018-08-06T03:49:39.138Z,21.53
2018-08-06T03:52:09.809Z,21.49
2018-08-06T03:54:40.191Z,21.45
2018-08-06T03:57:10.646Z,21.50
2018-08-06T03:59:41.112Z,21.49
2018-08-06T04:02:11.640Z,21.56
2018-08-06T04:04:42.182Z,21.57
2018-08-06T04:07:12.876Z,21.64
2018-08-06T04:09:43.103Z,21.62
2018-08-06T04:12:13.681Z,21.63
2018-08-06T04:14:44.243Z,21.67
2018-08-06T04:17:14.697Z,21.71
2018-08-06T04:19:45.277Z,21.73
2018-08-06T04:22:15.818Z,21.84
2018-08-06T04:24:45.808Z,21.87
2018-08-06T04:27:16.397Z,21.91
2018-08-06T04:29:46.854Z,21.92
2018-08-06T04:32:17.218Z,21.95
2018-08-06T04:34:47.235Z,22.08
2018-08-06T04:37:21.343Z,22.02
2018-08-06T04:39:52.224Z,22.08
2018-08-06T04:42:22.826Z,22.12
2018-08-06T04:44:52.826Z,22.13
2018-08-06T04:47:23.260Z,22.16
2018-08-06T04:49:53.830Z,22.20
2018-08-06T04:52:24.427Z,22.23
2018-08-06T04:54:54.801Z,22.24
2018-08-06T04:57:25.403Z,22.25
2018-08-06T04:59:55.921Z,22.28
2018-08-06T05:02:26.327Z,22.33
2018-08-06T05:04:56.736Z,22.41
2018-08-06T05:07:27.311Z,22.51
2018-08-06T05:09:57.906Z,22.51
2018-08-06T05:12:28.607Z,22.58
2018-08-06T05:14:59.064Z,22.70
2018-08-06T05:17:29.171Z,22.80
2018-08-06T05:19:59.535Z,22.97
2018-08-06T05:22:29.956Z,22.92
2018-08-06T05:25:00.357Z,23.03
2018-08-06T05:27:30.915Z,23.03
2018-08-06T05:30:01.243Z,23.11
2018-08-06T05:32:31.593Z,23.20
2018-08-06T05:35:02.162Z,23.35
2018-08-06T05:37:32.656Z,23.36
2018-08-06T05:40:03.297Z,23.45
2018-08-06T05:42:33.583Z,23.55
2018-08-06T05:45:04.146Z,23.64
2018-08-06T05:47:34.774Z,23.75
2018-08-06T05:50:07.017Z,23.83
2018-08-06T05:52:37.337Z,23.88
2018-08-06T05:55:09.296Z,23.97
2018-08-06T05:57:40.141Z,24.09
2018-08-06T06:00:25.466Z,24.23
2018-08-06T06:02:56.035Z,24.36
2018-08-06T06:05:25.711Z,24.48
2018-08-06T06:07:56.090Z,24.57
2018-08-06T06:10:26.727Z,24.76
2018-08-06T06:12:57.047Z,24.91
2018-08-06T06:15:27.474Z,24.98
2018-08-06T06:17:57.976Z,25.14
2018-08-06T06:20:28.266Z,25.05
2018-08-06T06:22:58.695Z,25.09
2018-08-06T06:25:29.037Z,25.16
2018-08-06T06:27:59.420Z,25.22
2018-08-06T06:30:29.882Z,25.24
2018-08-06T06:33:00.355Z,25.24
2018-08-06T06:35:30.872Z,25.27
2018-08-06T06:38:01.198Z,25.33
2018-08-06T06:40:31.484Z,25.33
2018-08-06T06:43:01.914Z,25.33
2018-08-06T06:45:32.345Z,25.21
2018-08-06T06:48:02.875Z,25.20
2018-08-06T06:50:33.213Z,25.29
2018-08-06T06:53:03.642Z,25.33
2018-08-06T06:55:34.186Z,25.45
2018-08-06T06:58:04.299Z,25.46
2018-08-06T07:00:34.516Z,25.41
2018-08-06T07:03:05.216Z,25.47
2018-08-06T07:05:35.851Z,25.54
2018-08-06T07:08:06.454Z,25.62
2018-08-06T07:10:36.779Z,25.77
2018-08-06T07:13:07.393Z,25.86
2018-08-06T07:15:37.886Z,25.91
2018-08-06T07:18:08.572Z,25.89
2018-08-06T07:20:38.917Z,25.85
2018-08-06T07:23:09.189Z,25.98
2018-08-06T07:25:39.167Z,26.05
2018-08-06T07:28:09.458Z,26.12
2018-08-06T07:30:40.044Z,26.19
2018-08-06T07:33:10.549Z,26.22
2018-08-06T07:35:41.225Z,26.33
2018-08-06T07:38:11.787Z,26.46
2018-08-06T07:40:42.127Z,26.53
2018-08-06T07:43:12.551Z,26.57
2018-08-06T07:45:42.967Z,26.65
2018-08-06T07:48:13.487Z,26.70
2018-08-06T07:50:44.095Z,26.74
2018-08-06T07:53:14.442Z,26.87
2018-08-06T07:55:44.820Z,27.05
2018-08-06T07:58:15.374Z,27.24
2018-08-06T08:00:46.285Z,27.38
2018-08-06T08:03:16.262Z,27.50
2018-08-06T08:05:47.456Z,27.53
2018-08-06T08:08:17.803Z,27.64
2018-08-06T08:10:48.296Z,27.76
2018-08-06T08:13:18.763Z,27.84
2018-08-06T08:15:49.164Z,27.96
2018-08-06T08:18:23.710Z,27.94
2018-08-06T08:20:55.133Z,27.88
2018-08-06T08:23:25.417Z,27.99
2018-08-06T08:25:55.854Z,28.08
2018-08-06T08:28:26.846Z,28.13
2018-08-06T08:30:57.312Z,28.22
2018-08-06T08:33:27.932Z,28.12
2018-08-06T08:35:58.399Z,28.18
2018-08-06T08:38:28.716Z,28.43
2018-08-06T08:40:59.229Z,28.17
2018-08-06T08:43:29.815Z,28.37
2018-08-06T08:45:59.830Z,28.57
2018-08-06T08:48:30.122Z,28.74
2018-08-06T08:51:00.648Z,29.04
2018-08-06T08:53:31.116Z,29.01
2018-08-06T08:56:02.519Z,29.20
2018-08-06T08:58:33.119Z,29.35
2018-08-06T09:01:03.679Z,29.17
2018-08-06T09:03:34.361Z,29.35
2018-08-06T09:06:04.819Z,29.56
2018-08-06T09:08:35.412Z,29.49
2018-08-06T09:11:05.929Z,29.74
2018-08-06T09:13:36.811Z,29.90
2018-08-06T09:16:07.441Z,29.96
2018-08-06T09:18:37.942Z,30.05
2018-08-06T09:21:08.520Z,30.21
2018-08-06T09:23:39.936Z,30.43
2018-08-06T09:26:11.264Z,30.58
2018-08-06T09:28:41.592Z,30.90
2018-08-06T09:31:11.875Z,30.96
2018-08-06T09:33:42.175Z,31.14
2018-08-06T09:36:12.618Z,31.45
2018-08-06T09:38:43.123Z,31.74
2018-08-06T09:41:13.605Z,31.88
2018-08-06T09:43:43.966Z,32.03
2018-08-06T09:46:14.359Z,32.28
2018-08-06T09:48:45.016Z,32.63
2018-08-06T09:51:15.391Z,32.87
2018-08-06T09:53:45.994Z,32.60
2018-08-06T09:56:16.674Z,32.49
2018-08-06T09:58:47.162Z,32.62
2018-08-06T10:01:23.395Z,32.83
2018-08-06T10:03:53.738Z,32.84
2018-08-06T10:06:24.437Z,33.07
2018-08-06T10:08:54.892Z,33.43
2018-08-06T10:11:25.361Z,33.44
2018-08-06T10:13:55.759Z,34.01
2018-08-06T10:16:26.423Z,34.27
2018-08-06T10:18:57.088Z,34.57
2018-08-06T10:21:27.538Z,34.34
2018-08-06T10:23:57.956Z,34.45
2018-08-06T10:26:28.784Z,34.95
2018-08-06T10:28:59.313Z,35.38
2018-08-06T10:31:29.816Z,35.83
2018-08-06T10:34:00.379Z,35.89
2018-08-06T10:36:30.806Z,35.39
2018-08-06T10:39:01.359Z,35.31
2018-08-06T10:41:31.823Z,34.86
2018-08-06T10:44:02.316Z,34.69
2018-08-06T10:46:32.875Z,34.89
2018-08-06T10:49:03.244Z,35.44
2018-08-06T10:51:33.979Z,35.79
2018-08-06T10:54:04.948Z,35.73
2018-08-06T10:56:35.380Z,35.74
2018-08-06T10:59:06.135Z,36.08
2018-08-06T11:01:36.503Z,36.66
2018-08-06T11:04:07.350Z,36.82
2018-08-06T11:06:37.449Z,36.79
2018-08-06T11:09:09.248Z,36.68
2018-08-06T11:11:40.011Z,36.52
2018-08-06T11:14:10.731Z,36.92
2018-08-06T11:16:40.830Z,36.94
2018-08-06T11:19:11.356Z,36.75
2018-08-06T11:21:41.835Z,37.15
2018-08-06T11:24:12.405Z,37.10
2018-08-06T11:26:43.167Z,36.92
2018-08-06T11:29:13.888Z,37.08
2018-08-06T11:31:44.201Z,37.80
2018-08-06T11:34:14.619Z,37.74
2018-08-06T11:36:45.011Z,37.08
2018-08-06T11:39:15.578Z,36.93
2018-08-06T11:41:45.921Z,36.94
2018-08-06T11:44:16.533Z,37.90
2018-08-06T11:46:46.928Z,38.46
2018-08-06T11:49:17.488Z,39.01
2018-08-06T11:51:47.985Z,39.47
2018-08-06T11:54:18.547Z,39.83
2018-08-06T11:56:49.092Z,39.92
2018-08-06T11:59:19.380Z,39.86
2018-08-06T12:01:49.913Z,39.48
2018-08-06T12:04:20.901Z,39.99
2018-08-06T12:06:51.367Z,40.03
2018-08-06T12:09:22.053Z,40.20
2018-08-06T12:11:52.631Z,41.11
2018-08-06T12:14:23.079Z,41.48
2018-08-06T12:16:53.847Z,41.54
2018-08-06T12:19:24.993Z,40.00
2018-08-06T12:21:55.462Z,39.14
2018-08-06T12:24:25.938Z,38.77
2018-08-06T12:26:56.349Z,39.16
2018-08-06T12:29:26.927Z,38.73
2018-08-06T12:31:58.063Z,38.82
2018-08-06T12:34:28.607Z,39.24
2018-08-06T12:36:59.010Z,39.49
2018-08-06T12:39:29.500Z,39.24
2018-08-06T12:41:59.919Z,38.71
2018-08-06T12:44:29.852Z,38.22
2018-08-06T12:47:00.465Z,38.15
2018-08-06T12:49:31.091Z,37.36
2018-08-06T12:52:01.499Z,36.86
2018-08-06T12:54:31.754Z,36.94
2018-08-06T12:57:02.261Z,38.10
2018-08-06T12:59:32.770Z,40.66
2018-08-06T13:02:03.206Z,42.79
2018-08-06T13:04:33.560Z,44.76
2018-08-06T13:07:03.844Z,45.98
2018-08-06T13:09:34.418Z,44.36
2018-08-06T13:12:04.902Z,42.34
2018-08-06T13:14:35.302Z,43.20
2018-08-06T13:17:05.846Z,45.04
2018-08-06T13:19:36.338Z,47.23
2018-08-06T13:22:06.526Z,46.97
2018-08-06T13:24:37.137Z,48.20
2018-08-06T13:27:07.786Z,49.40
2018-08-06T13:29:38.299Z,50.19
2018-08-06T13:32:08.772Z,50.95
2018-08-06T13:34:38.986Z,48.82
2018-08-06T13:37:09.404Z,49.73
2018-08-06T13:39:39.612Z,49.72
2018-08-06T13:42:09.442Z,49.55
2018-08-06T13:44:39.513Z,50.58
2018-08-06T13:47:09.990Z,51.13
2018-08-06T13:49:40.671Z,50.13
2018-08-06T13:52:11.061Z,47.97
2018-08-06T13:54:41.482Z,48.45
2018-08-06T13:57:12.000Z,47.66
2018-08-06T13:59:42.436Z,48.46
2018-08-06T14:02:12.936Z,49.74
2018-08-06T14:04:43.206Z,50.29
2018-08-06T14:07:14.500Z,48.97
2018-08-06T14:09:44.981Z,48.14
2018-08-06T14:12:15.487Z,46.88
2018-08-06T14:14:45.661Z,48.25
2018-08-06T14:17:16.163Z,47.92
2018-08-06T14:19:46.710Z,48.02
2018-08-06T14:22:17.417Z,48.29
2018-08-06T14:24:47.843Z,49.27
2018-08-06T14:27:18.360Z,50.24
2018-08-06T14:29:49.185Z,49.68
2018-08-06T14:32:19.492Z,47.48
2018-08-06T14:34:50.077Z,47.39
2018-08-06T14:37:20.552Z,47.46
2018-08-06T14:39:50.891Z,46.67
2018-08-06T14:42:21.440Z,47.49
2018-08-06T14:44:52.106Z,46.32
2018-08-06T14:47:22.703Z,46.37
2018-08-06T14:49:53.066Z,45.61
2018-08-06T14:52:23.458Z,44.54
2018-08-06T14:54:54.077Z,43.80
2018-08-06T14:57:24.106Z,41.98
2018-08-06T14:59:54.141Z,42.11
2018-08-06T15:02:24.218Z,42.17
2018-08-06T15:04:54.289Z,41.88
2018-08-06T15:07:24.269Z,42.34
2018-08-06T15:09:54.720Z,42.85
2018-08-06T15:12:25.585Z,42.73
2018-08-06T15:14:56.025Z,42.21
2018-08-06T15:17:26.843Z,41.75
2018-08-06T15:19:57.328Z,41.87
2018-08-06T15:22:27.759Z,41.90
2018-08-06T15:24:58.290Z,42.24
2018-08-06T15:27:28.743Z,42.19
2018-08-06T15:29:59.198Z,41.92
2018-08-06T15:32:29.697Z,41.90
2018-08-06T15:35:00.238Z,41.66
2018-08-06T15:37:30.872Z,41.19
2018-08-06T15:40:01.284Z,40.05
2018-08-06T15:42:31.816Z,39.33
2018-08-06T15:45:02.357Z,39.56
2018-08-06T15:47:32.814Z,39.52
2018-08-06T15:50:03.378Z,39.41
2018-08-06T15:52:33.789Z,39.73
2018-08-06T15:55:05.489Z,39.51
2018-08-06T15:57:35.889Z,39.20
2018-08-06T16:00:08.234Z,38.92
2018-08-06T16:02:38.825Z,38.28
2018-08-06T16:05:10.198Z,37.94
2018-08-06T16:07:41.021Z,37.62
2018-08-06T16:10:12.623Z,37.53
2018-08-06T16:12:43.823Z,37.24
2018-08-06T16:15:15.513Z,37.12
2018-08-06T16:17:45.790Z,37.00
2018-08-06T16:20:17.555Z,36.85
2018-08-06T16:22:47.566Z,36.64
2018-08-06T16:25:18.021Z,36.50
2018-08-06T16:27:48.567Z,36.74
2018-08-06T16:30:22.287Z,36.84
2018-08-06T16:32:52.900Z,36.92
2018-08-06T16:35:24.664Z,36.34
2018-08-06T16:37:56.704Z,36.36
2018-08-06T16:40:27.103Z,36.04
2018-08-06T16:42:57.597Z,36.20
2018-08-06T16:45:28.155Z,36.36
2018-08-06T16:47:58.853Z,36.01
2018-08-06T16:50:29.251Z,35.52
2018-08-06T16:52:59.693Z,35.04
2018-08-06T16:55:29.778Z,34.75
2018-08-06T16:58:00.323Z,34.30
2018-08-06T17:00:30.789Z,34.28
2018-08-06T17:03:01.247Z,34.15
2018-08-06T17:05:31.784Z,34.29
2018-08-06T17:08:02.434Z,34.41
2018-08-06T17:10:33.152Z,34.15
2018-08-06T17:13:03.644Z,34.04
2018-08-06T17:15:34.299Z,33.71
2018-08-06T17:18:04.731Z,33.45
2018-08-06T17:20:35.280Z,33.20
2018-08-06T17:23:05.836Z,32.80
2018-08-06T17:25:36.327Z,32.49
2018-08-06T17:28:07.227Z,32.29
2018-08-06T17:30:37.587Z,32.20
2018-08-06T17:33:07.867Z,32.33
2018-08-06T17:35:38.222Z,32.18
2018-08-06T17:38:08.439Z,32.28
2018-08-06T17:40:38.997Z,32.23
2018-08-06T17:43:09.577Z,32.26
2018-08-06T17:45:39.621Z,32.31
2018-08-06T17:48:10.206Z,32.17
2018-08-06T17:50:40.767Z,32.09
2018-08-06T17:53:11.067Z,31.88
2018-08-06T17:55:41.571Z,31.86
2018-08-06T17:58:12.177Z,31.75
2018-08-06T18:00:42.788Z,31.72
2018-08-06T18:03:13.393Z,31.66
2018-08-06T18:05:44.040Z,31.64
2018-08-06T18:08:14.658Z,31.44
2018-08-06T18:10:44.726Z,31.32
2018-08-06T18:13:15.110Z,31.23
2018-08-06T18:15:45.576Z,31.16
2018-08-06T18:18:16.051Z,31.05
2018-08-06T18:20:46.531Z,30.86
2018-08-06T18:23:17.149Z,30.79
2018-08-06T18:25:47.497Z,30.78
2018-08-06T18:28:17.991Z,30.67
2018-08-06T18:30:48.416Z,30.60
2018-08-06T18:33:18.936Z,30.60
2018-08-06T18:35:49.587Z,30.48
2018-08-06T18:38:20.839Z,30.38
2018-08-06T18:40:51.239Z,30.27
2018-08-06T18:43:21.747Z,30.20
2018-08-06T18:45:51.709Z,30.08
2018-08-06T18:48:22.204Z,30.08
2018-08-06T18:50:52.804Z,29.96
2018-08-06T18:53:23.265Z,29.83
2018-08-06T18:55:53.856Z,29.94
2018-08-06T18:58:24.318Z,29.77
2018-08-06T19:00:54.667Z,29.76
2018-08-06T19:03:25.134Z,29.69
2018-08-06T19:05:55.624Z,29.63
2018-08-06T19:08:26.127Z,29.56
2018-08-06T19:10:56.815Z,29.56
2018-08-06T19:13:32.495Z,29.46
2018-08-06T19:16:03.080Z,29.38
2018-08-06T19:18:38.814Z,29.35
2018-08-06T19:21:10.472Z,29.29
2018-08-06T19:23:40.831Z,29.19
2018-08-06T19:26:11.450Z,28.99
2018-08-06T19:28:42.045Z,28.82
2018-08-06T19:31:17.610Z,28.67
2018-08-06T19:33:47.907Z,28.49
2018-08-06T19:36:18.485Z,28.34
2018-08-06T19:38:48.991Z,28.27
2018-08-06T19:41:19.451Z,28.12
2018-08-06T19:43:49.912Z,28.14
2018-08-06T19:46:20.368Z,28.08
2018-08-06T19:48:50.773Z,27.96
2018-08-06T19:51:21.244Z,27.93
2018-08-06T19:53:51.760Z,27.80
2018-08-06T19:56:22.609Z,27.80
2018-08-06T19:58:53.063Z,27.71
2018-08-06T20:01:23.472Z,27.70
2018-08-06T20:03:54.212Z,27.52
2018-08-06T20:06:24.690Z,27.60
2018-08-06T20:08:55.175Z,27.54
2018-08-06T20:11:25.828Z,27.50
2018-08-06T20:13:56.302Z,27.43
2018-08-06T20:16:26.885Z,27.50
2018-08-06T20:18:57.167Z,27.52
2018-08-06T20:21:27.643Z,27.53
2018-08-06T20:23:58.234Z,27.60
2018-08-06T20:26:28.958Z,27.56
2018-08-06T20:28:59.139Z,27.48
2018-08-06T20:31:29.615Z,27.48
2018-08-06T20:33:59.972Z,27.44
2018-08-06T20:36:30.976Z,27.38
2018-08-06T20:39:01.350Z,27.27
2018-08-06T20:41:31.239Z,27.25
2018-08-06T20:44:01.791Z,27.16
2018-08-06T20:46:32.376Z,27.18
2018-08-06T20:49:02.998Z,27.15
2018-08-06T20:51:33.412Z,27.15
2018-08-06T20:54:03.814Z,27.14
2018-08-06T20:56:34.315Z,27.20
2018-08-06T20:59:04.885Z,27.09
2018-08-06T21:01:35.353Z,27.01
2018-08-06T21:04:05.835Z,26.90
2018-08-06T21:06:36.263Z,26.85
2018-08-06T21:09:09.992Z,26.79
2018-08-06T21:11:40.591Z,26.78
2018-08-06T21:14:11.081Z,26.77
2018-08-06T21:16:41.436Z,26.60
2018-08-06T21:19:11.880Z,26.64
2018-08-06T21:21:42.470Z,26.66
2018-08-06T21:24:12.914Z,26.62
2018-08-06T21:26:43.591Z,26.55
2018-08-06T21:29:14.103Z,26.51
2018-08-06T21:31:44.718Z,26.51
2018-08-06T21:34:15.045Z,26.50
2018-08-06T21:36:45.555Z,26.40
2018-08-06T21:39:16.102Z,26.34
2018-08-06T21:41:46.179Z,26.38
2018-08-06T21:44:16.458Z,26.40
2018-08-06T21:46:46.425Z,26.41
2018-08-06T21:49:16.999Z,26.48
2018-08-06T21:51:47.876Z,26.39
2018-08-06T21:54:17.978Z,26.32
2018-08-06T21:56:48.417Z,26.28
2018-08-06T21:59:18.450Z,26.32
2018-08-06T22:01:48.552Z,26.30
2018-08-06T22:04:18.546Z,26.28
2018-08-06T22:06:48.660Z,26.23
2018-08-06T22:09:18.694Z,26.19
2018-08-06T22:11:48.830Z,26.14
2018-08-06T22:14:18.893Z,26.06
2018-08-06T22:16:48.893Z,26.12
2018-08-06T22:19:18.949Z,26.05
2018-08-06T22:21:48.958Z,26.02
2018-08-06T22:24:18.937Z,26.02
2018-08-06T22:26:48.969Z,25.96
2018-08-06T22:29:18.968Z,25.82
2018-08-06T22:31:49.025Z,25.78
2018-08-06T22:34:19.032Z,25.78
2018-08-06T22:36:49.108Z,25.70
2018-08-06T22:39:19.137Z,25.70
2018-08-06T22:41:49.170Z,25.68
2018-08-06T22:44:19.141Z,25.61
2018-08-06T22:46:49.102Z,25.57
2018-08-06T22:49:19.136Z,25.59
2018-08-06T22:51:49.163Z,25.59
2018-08-06T22:54:19.164Z,25.59
2018-08-06T22:56:49.156Z,25.63
2018-08-06T22:59:19.183Z,25.58
2018-08-06T23:01:49.233Z,25.58
2018-08-06T23:04:19.234Z,25.58
2018-08-06T23:06:49.296Z,25.56
2018-08-06T23:09:19.350Z,25.53
2018-08-06T23:11:49.327Z,25.51
2018-08-06T23:14:19.366Z,25.50
2018-08-06T23:16:49.363Z,25.39
2018-08-06T23:19:19.491Z,25.37
2018-08-06T23:21:49.478Z,25.39
2018-08-06T23:24:19.482Z,25.37
2018-08-06T23:26:49.531Z,25.26
2018-08-06T23:29:19.593Z,25.22
2018-08-06T23:31:49.579Z,25.16
2018-08-06T23:34:19.601Z,25.13
2018-08-06T23:36:49.649Z,25.06
2018-08-06T23:39:19.658Z,25.07
2018-08-06T23:41:49.659Z,25.08
2018-08-06T23:44:19.755Z,25.10
2018-08-06T23:46:49.768Z,25.16
2018-08-06T23:49:19.757Z,25.09
2018-08-06T23:51:49.675Z,25.12
2018-08-06T23:54:19.686Z,25.07
2018-08-06T23:56:49.813Z,25.07
2018-08-06T23:59:19.897Z,25.10
